Giewont — C6YE4 — position and weather

sailwx.info

Track history (hours):
 
Tides and Currents Weather Stations Pressure Air Temp Water Temp Dewpoint Dewpoint Depression Visibility Wind Speed Wind Dir Waves Ship Positions

Giewont

Last reported at 2014-Jul-22 01:20 UTC. Time now 2014-Jul-24 23:07 UTC.
Position N 37°59' E 122°23'.

Length 229 m; draft 7.6 m.

Type: Cargo ship. MMSI: 311029800.

Date/timePositionNaut miles runAvg speedWind from/ knotsBaromVisibWave heightAir tempDewpointWater temp
2014-Jul-22 01:20N 37°59' E 122°23'9212.6
2014-Jul-21 18:04N 38°46' E 120°42'714.2
2014-Jul-21 17:34N 38°53' E 120°42'1414.0
2014-Jul-21 16:33N 39°07' E 120°42'  
2014-Jul-15 14:26N 40°18' E 121°56'7 7.8
2014-Jul-15 13:32N 40°18' E 122°05'0 0.0
2014-Jul-15 12:32N 40°18' E 122°05'0 0.0
2014-Jul-15 11:32N 40°18' E 122°05'0 0.0
2014-Jul-15 10:32N 40°18' E 122°05'0 0.0
2014-Jul-15 09:32N 40°18' E 122°05'0 0.0
2014-Jul-15 08:32N 40°18' E 122°05'0 0.0
2014-Jul-15 07:32N 40°18' E 122°05'0 0.0
2014-Jul-15 06:32N 40°18' E 122°05'0 0.0
2014-Jul-15 05:32N 40°18' E 122°05'0 0.0
2014-Jul-15 04:32N 40°18' E 122°05'0 0.0
2014-Jul-15 03:32N 40°18' E 122°05'0 0.0
2014-Jul-15 02:32N 40°18' E 122°05'0 0.0
2014-Jul-15 01:32N 40°18' E 122°05'0 0.0
2014-Jul-15 00:32N 40°18' E 122°05'0 0.0
2014-Jul-14 23:26N 40°18' E 122°05'0 0.0
2014-Jul-14 22:32N 40°18' E 122°05'0 0.0
2014-Jul-14 21:32N 40°18' E 122°05'0 0.0
2014-Jul-14 20:26N 40°18' E 122°05'0 0.0
2014-Jul-14 19:32N 40°18' E 122°05'0 0.0
2014-Jul-14 18:32N 40°18' E 122°05'0 0.0
2014-Jul-14 17:32N 40°18' E 122°05'0 0.0
2014-Jul-14 16:32N 40°18' E 122°05'0 0.0
2014-Jul-14 15:34N 40°18' E 122°05'4 4.5
2014-Jul-14 14:34N 40°18' E 121°59'7 6.6
2014-Jul-14 13:33N 40°17' E 121°50'59 3.6
2014-Jul-13 21:10N 39°35' E 120°57'912.9
2014-Jul-13 20:28N 39°28' E 120°49'1212.8
2014-Jul-13 19:33N 39°17' E 120°49'1312.8
2014-Jul-13 18:33N 39°04' E 120°49'10111.3
2014-Jul-13 09:33N 37°50' E 122°18'1313.0
2014-Jul-13 08:33N 37°44' E 122°32'3410.8
2014-Jul-13 05:21N 37°14' E 122°53'910.6
2014-Jul-13 04:33N 37°05' E 122°54'1010.6
2014-Jul-13 03:33N 36°55' E 122°55'1110.9
2014-Jul-13 02:33N 36°44' E 122°57'1211.7
2014-Jul-13 01:33N 36°32' E 122°57'  
Track history (hours):
 
Tides and Currents Weather Stations Pressure Air Temp Water Temp Dewpoint Dewpoint Depression Visibility Wind Speed Wind Dir Waves Ship Positions

Giewont

Last reported at 2014-Jul-22 01:20 UTC. Time now 2014-Jul-24 23:07 UTC.
Position N 37°59' E 122°23'.

Length 229 m; draft 7.6 m.

Type: Cargo ship. MMSI: 311029800.

Date/timePositionNaut miles runAvg speedWind from/ knotsBaromVisibWave heightAir tempDewpointWater temp
2014-Jul-22 01:20N 37°59' E 122°23'9212.6
2014-Jul-21 18:04N 38°46' E 120°42'714.2
2014-Jul-21 17:34N 38°53' E 120°42'1414.0
2014-Jul-21 16:33N 39°07' E 120°42'  
2014-Jul-15 14:26N 40°18' E 121°56'7 7.8
2014-Jul-15 13:32N 40°18' E 122°05'0 0.0
2014-Jul-15 12:32N 40°18' E 122°05'0 0.0
2014-Jul-15 11:32N 40°18' E 122°05'0 0.0
2014-Jul-15 10:32N 40°18' E 122°05'0 0.0
2014-Jul-15 09:32N 40°18' E 122°05'0 0.0
2014-Jul-15 08:32N 40°18' E 122°05'0 0.0
2014-Jul-15 07:32N 40°18' E 122°05'0 0.0
2014-Jul-15 06:32N 40°18' E 122°05'0 0.0
2014-Jul-15 05:32N 40°18' E 122°05'0 0.0
2014-Jul-15 04:32N 40°18' E 122°05'0 0.0
2014-Jul-15 03:32N 40°18' E 122°05'0 0.0
2014-Jul-15 02:32N 40°18' E 122°05'0 0.0
2014-Jul-15 01:32N 40°18' E 122°05'0 0.0
2014-Jul-15 00:32N 40°18' E 122°05'0 0.0
2014-Jul-14 23:26N 40°18' E 122°05'0 0.0
2014-Jul-14 22:32N 40°18' E 122°05'0 0.0
2014-Jul-14 21:32N 40°18' E 122°05'0 0.0
2014-Jul-14 20:26N 40°18' E 122°05'0 0.0
2014-Jul-14 19:32N 40°18' E 122°05'0 0.0
2014-Jul-14 18:32N 40°18' E 122°05'0 0.0
2014-Jul-14 17:32N 40°18' E 122°05'0 0.0
2014-Jul-14 16:32N 40°18' E 122°05'0 0.0
2014-Jul-14 15:34N 40°18' E 122°05'4 4.5
2014-Jul-14 14:34N 40°18' E 121°59'7 6.6
2014-Jul-14 13:33N 40°17' E 121°50'59 3.6
2014-Jul-13 21:10N 39°35' E 120°57'912.9
2014-Jul-13 20:28N 39°28' E 120°49'1212.8
2014-Jul-13 19:33N 39°17' E 120°49'1312.8
2014-Jul-13 18:33N 39°04' E 120°49'10111.3
2014-Jul-13 09:33N 37°50' E 122°18'1313.0
2014-Jul-13 08:33N 37°44' E 122°32'3410.8
2014-Jul-13 05:21N 37°14' E 122°53'910.6
2014-Jul-13 04:33N 37°05' E 122°54'1010.6
2014-Jul-13 03:33N 36°55' E 122°55'1110.9
2014-Jul-13 02:33N 36°44' E 122°57'1211.7
2014-Jul-13 01:33N 36°32' E 122°57'  

Dump ship's entire track history